sensor_id;sensor_type;location;lat;lon;timestamp;P1;durP1;ratioP1;P2;durP2;ratioP2
56037;SDS011;41907;47.848;9.000;2023-07-29T00:01:49;7.10;;;4.18;;
56037;SDS011;41907;47.848;9.000;2023-07-29T00:04:14;4.28;;;3.83;;
56037;SDS011;41907;47.848;9.000;2023-07-29T00:06:40;6.95;;;3.80;;
56037;SDS011;41907;47.848;9.000;2023-07-29T00:09:05;5.35;;;3.45;;
56037;SDS011;41907;47.848;9.000;2023-07-29T00:11:30;5.95;;;3.80;;
56037;SDS011;41907;47.848;9.000;2023-07-29T00:13:58;4.63;;;3.30;;
56037;SDS011;41907;47.848;9.000;2023-07-29T00:16:25;4.85;;;3.53;;
56037;SDS011;41907;47.848;9.000;2023-07-29T00:18:50;4.72;;;3.10;;
56037;SDS011;41907;47.848;9.000;2023-07-29T00:21:16;5.03;;;3.80;;
56037;SDS011;41907;47.848;9.000;2023-07-29T00:23:42;5.07;;;3.80;;
56037;SDS011;41907;47.848;9.000;2023-07-29T00:26:07;5.95;;;3.88;;
56037;SDS011;41907;47.848;9.000;2023-07-29T00:28:32;5.05;;;4.18;;
56037;SDS011;41907;47.848;9.000;2023-07-29T00:30:58;6.18;;;3.80;;
56037;SDS011;41907;47.848;9.000;2023-07-29T00:33:23;4.75;;;3.58;;
56037;SDS011;41907;47.848;9.000;2023-07-29T00:35:48;5.38;;;4.47;;
56037;SDS011;41907;47.848;9.000;2023-07-29T00:38:14;6.13;;;3.72;;
56037;SDS011;41907;47.848;9.000;2023-07-29T00:40:39;8.10;;;3.88;;
56037;SDS011;41907;47.848;9.000;2023-07-29T00:43:05;5.45;;;3.65;;
56037;SDS011;41907;47.848;9.000;2023-07-29T00:45:31;5.18;;;3.60;;
56037;SDS011;41907;47.848;9.000;2023-07-29T00:47:58;5.43;;;3.33;;
56037;SDS011;41907;47.848;9.000;2023-07-29T00:50:24;9.23;;;4.10;;
56037;SDS011;41907;47.848;9.000;2023-07-29T00:52:52;4.68;;;4.15;;
56037;SDS011;41907;47.848;9.000;2023-07-29T00:55:18;5.82;;;4.00;;
56037;SDS011;41907;47.848;9.000;2023-07-29T00:57:44;6.47;;;4.10;;
56037;SDS011;41907;47.848;9.000;2023-07-29T01:00:13;4.20;;;3.67;;
56037;SDS011;41907;47.848;9.000;2023-07-29T01:02:39;5.85;;;3.53;;
56037;SDS011;41907;47.848;9.000;2023-07-29T01:05:04;7.93;;;4.68;;
56037;SDS011;41907;47.848;9.000;2023-07-29T01:07:39;4.50;;;3.63;;
56037;SDS011;41907;47.848;9.000;2023-07-29T01:10:19;5.38;;;4.20;;
56037;SDS011;41907;47.848;9.000;2023-07-29T01:15:16;4.28;;;3.83;;
56037;SDS011;41907;47.848;9.000;2023-07-29T01:17:48;5.15;;;3.83;;
56037;SDS011;41907;47.848;9.000;2023-07-29T01:20:17;6.40;;;3.90;;
56037;SDS011;41907;47.848;9.000;2023-07-29T01:22:45;7.15;;;4.18;;
56037;SDS011;41907;47.848;9.000;2023-07-29T01:25:12;6.13;;;4.25;;
56037;SDS011;41907;47.848;9.000;2023-07-29T01:27:38;4.68;;;3.30;;
56037;SDS011;41907;47.848;9.000;2023-07-29T01:30:04;6.13;;;4.00;;
56037;SDS011;41907;47.848;9.000;2023-07-29T01:32:42;5.55;;;3.60;;
56037;SDS011;41907;47.848;9.000;2023-07-29T01:35:24;10.95;;;5.20;;
56037;SDS011;41907;47.848;9.000;2023-07-29T01:37:58;5.20;;;4.25;;
56037;SDS011;41907;47.848;9.000;2023-07-29T01:40:31;6.22;;;4.15;;
56037;SDS011;41907;47.848;9.000;2023-07-29T01:42:58;6.88;;;4.35;;
56037;SDS011;41907;47.848;9.000;2023-07-29T01:45:24;7.85;;;4.07;;
56037;SDS011;41907;47.848;9.000;2023-07-29T01:47:50;4.78;;;3.85;;
56037;SDS011;41907;47.848;9.000;2023-07-29T01:50:16;5.85;;;3.95;;
56037;SDS011;41907;47.848;9.000;2023-07-29T01:52:42;9.07;;;4.53;;
56037;SDS011;41907;47.848;9.000;2023-07-29T01:55:07;11.63;;;4.40;;
56037;SDS011;41907;47.848;9.000;2023-07-29T01:57:32;6.43;;;4.13;;
56037;SDS011;41907;47.848;9.000;2023-07-29T01:59:58;6.90;;;4.82;;
56037;SDS011;41907;47.848;9.000;2023-07-29T02:02:24;9.32;;;4.50;;
56037;SDS011;41907;47.848;9.000;2023-07-29T02:04:49;5.63;;;4.35;;
56037;SDS011;41907;47.848;9.000;2023-07-29T02:07:16;7.05;;;4.47;;
56037;SDS011;41907;47.848;9.000;2023-07-29T02:09:43;7.85;;;5.10;;
56037;SDS011;41907;47.848;9.000;2023-07-29T02:12:08;5.95;;;4.47;;
56037;SDS011;41907;47.848;9.000;2023-07-29T02:14:34;6.63;;;4.38;;
56037;SDS011;41907;47.848;9.000;2023-07-29T02:16:59;8.23;;;4.45;;
56037;SDS011;41907;47.848;9.000;2023-07-29T02:19:24;6.18;;;4.65;;
56037;SDS011;41907;47.848;9.000;2023-07-29T02:21:50;10.73;;;4.70;;
56037;SDS011;41907;47.848;9.000;2023-07-29T02:24:15;5.95;;;4.45;;
56037;SDS011;41907;47.848;9.000;2023-07-29T02:26:41;8.13;;;4.80;;
56037;SDS011;41907;47.848;9.000;2023-07-29T02:29:06;12.82;;;5.07;;
56037;SDS011;41907;47.848;9.000;2023-07-29T02:31:32;8.38;;;5.20;;
56037;SDS011;41907;47.848;9.000;2023-07-29T02:33:57;9.02;;;5.00;;
56037;SDS011;41907;47.848;9.000;2023-07-29T02:36:23;18.73;;;14.00;;
56037;SDS011;41907;47.848;9.000;2023-07-29T02:38:48;5.55;;;4.70;;
56037;SDS011;41907;47.848;9.000;2023-07-29T02:41:13;6.47;;;4.65;;
56037;SDS011;41907;47.848;9.000;2023-07-29T02:43:41;9.20;;;4.03;;
56037;SDS011;41907;47.848;9.000;2023-07-29T02:46:07;4.47;;;3.63;;
56037;SDS011;41907;47.848;9.000;2023-07-29T02:48:33;4.63;;;3.17;;
56037;SDS011;41907;47.848;9.000;2023-07-29T02:50:58;6.07;;;3.78;;
56037;SDS011;41907;47.848;9.000;2023-07-29T02:53:24;5.53;;;3.90;;
56037;SDS011;41907;47.848;9.000;2023-07-29T02:55:50;6.53;;;3.20;;
56037;SDS011;41907;47.848;9.000;2023-07-29T02:58:15;5.60;;;3.60;;
56037;SDS011;41907;47.848;9.000;2023-07-29T03:00:41;5.75;;;3.53;;
56037;SDS011;41907;47.848;9.000;2023-07-29T03:03:09;3.50;;;3.10;;
56037;SDS011;41907;47.848;9.000;2023-07-29T03:05:34;4.15;;;3.17;;
56037;SDS011;41907;47.848;9.000;2023-07-29T03:08:00;4.85;;;3.47;;
56037;SDS011;41907;47.848;9.000;2023-07-29T03:10:26;4.50;;;3.35;;
56037;SDS011;41907;47.848;9.000;2023-07-29T03:12:54;5.38;;;3.33;;
56037;SDS011;41907;47.848;9.000;2023-07-29T03:15:23;6.35;;;3.95;;
56037;SDS011;41907;47.848;9.000;2023-07-29T03:17:49;5.57;;;3.70;;
56037;SDS011;41907;47.848;9.000;2023-07-29T03:20:15;9.80;;;4.05;;
56037;SDS011;41907;47.848;9.000;2023-07-29T03:22:42;5.88;;;3.95;;
56037;SDS011;41907;47.848;9.000;2023-07-29T03:25:08;6.03;;;3.95;;
56037;SDS011;41907;47.848;9.000;2023-07-29T03:27:33;5.07;;;3.65;;
56037;SDS011;41907;47.848;9.000;2023-07-29T03:30:01;5.03;;;3.80;;
56037;SDS011;41907;47.848;9.000;2023-07-29T03:32:27;4.40;;;3.60;;
56037;SDS011;41907;47.848;9.000;2023-07-29T03:34:52;7.13;;;3.95;;
56037;SDS011;41907;47.848;9.000;2023-07-29T03:37:18;5.00;;;4.00;;
56037;SDS011;41907;47.848;9.000;2023-07-29T03:39:43;4.85;;;3.40;;
56037;SDS011;41907;47.848;9.000;2023-07-29T03:42:08;7.60;;;3.92;;
56037;SDS011;41907;47.848;9.000;2023-07-29T03:44:33;6.30;;;3.70;;
56037;SDS011;41907;47.848;9.000;2023-07-29T03:47:00;7.60;;;3.83;;
56037;SDS011;41907;47.848;9.000;2023-07-29T03:49:25;5.95;;;3.88;;
56037;SDS011;41907;47.848;9.000;2023-07-29T03:51:51;5.72;;;4.03;;
56037;SDS011;41907;47.848;9.000;2023-07-29T03:54:16;6.93;;;3.83;;
56037;SDS011;41907;47.848;9.000;2023-07-29T03:56:41;5.15;;;3.97;;
56037;SDS011;41907;47.848;9.000;2023-07-29T03:59:07;6.18;;;3.95;;
56037;SDS011;41907;47.848;9.000;2023-07-29T04:01:32;4.20;;;3.50;;
56037;SDS011;41907;47.848;9.000;2023-07-29T04:03:58;6.75;;;3.85;;
56037;SDS011;41907;47.848;9.000;2023-07-29T04:06:24;6.95;;;4.30;;
56037;SDS011;41907;47.848;9.000;2023-07-29T04:08:49;5.57;;;4.00;;
56037;SDS011;41907;47.848;9.000;2023-07-29T04:11:15;6.30;;;3.78;;
56037;SDS011;41907;47.848;9.000;2023-07-29T04:13:40;7.88;;;3.80;;
56037;SDS011;41907;47.848;9.000;2023-07-29T04:16:06;5.45;;;3.53;;
56037;SDS011;41907;47.848;9.000;2023-07-29T04:18:31;6.32;;;3.88;;
56037;SDS011;41907;47.848;9.000;2023-07-29T04:20:57;9.70;;;7.07;;
56037;SDS011;41907;47.848;9.000;2023-07-29T04:23:22;8.63;;;5.50;;
56037;SDS011;41907;47.848;9.000;2023-07-29T04:25:48;22.27;;;17.80;;
56037;SDS011;41907;47.848;9.000;2023-07-29T04:28:14;10.25;;;4.85;;
56037;SDS011;41907;47.848;9.000;2023-07-29T04:30:40;5.65;;;3.88;;
56037;SDS011;41907;47.848;9.000;2023-07-29T04:33:05;5.70;;;3.75;;
56037;SDS011;41907;47.848;9.000;2023-07-29T04:35:31;4.50;;;3.28;;
56037;SDS011;41907;47.848;9.000;2023-07-29T04:37:56;5.43;;;3.95;;
56037;SDS011;41907;47.848;9.000;2023-07-29T04:40:22;5.20;;;3.78;;
56037;SDS011;41907;47.848;9.000;2023-07-29T04:42:48;5.22;;;3.72;;
56037;SDS011;41907;47.848;9.000;2023-07-29T04:45:14;5.03;;;4.10;;
56037;SDS011;41907;47.848;9.000;2023-07-29T04:47:41;5.88;;;4.00;;
56037;SDS011;41907;47.848;9.000;2023-07-29T04:50:06;4.53;;;3.20;;
56037;SDS011;41907;47.848;9.000;2023-07-29T04:52:32;4.03;;;3.63;;
56037;SDS011;41907;47.848;9.000;2023-07-29T04:54:57;6.07;;;3.70;;
56037;SDS011;41907;47.848;9.000;2023-07-29T04:57:23;4.25;;;3.60;;
56037;SDS011;41907;47.848;9.000;2023-07-29T04:59:48;5.57;;;3.15;;
56037;SDS011;41907;47.848;9.000;2023-07-29T05:02:14;4.07;;;2.75;;
56037;SDS011;41907;47.848;9.000;2023-07-29T05:04:40;3.92;;;3.08;;
56037;SDS011;41907;47.848;9.000;2023-07-29T05:07:05;4.13;;;3.58;;
56037;SDS011;41907;47.848;9.000;2023-07-29T05:09:31;3.97;;;3.22;;
56037;SDS011;41907;47.848;9.000;2023-07-29T05:11:56;6.13;;;3.22;;
56037;SDS011;41907;47.848;9.000;2023-07-29T05:14:22;9.40;;;3.50;;
56037;SDS011;41907;47.848;9.000;2023-07-29T05:16:47;4.85;;;3.65;;
56037;SDS011;41907;47.848;9.000;2023-07-29T05:19:13;7.70;;;3.50;;
56037;SDS011;41907;47.848;9.000;2023-07-29T05:21:38;5.93;;;3.65;;
56037;SDS011;41907;47.848;9.000;2023-07-29T05:24:04;4.40;;;3.47;;
56037;SDS011;41907;47.848;9.000;2023-07-29T05:26:29;5.47;;;3.75;;
56037;SDS011;41907;47.848;9.000;2023-07-29T05:28:55;5.13;;;3.38;;
56037;SDS011;41907;47.848;9.000;2023-07-29T05:31:21;5.03;;;3.78;;
56037;SDS011;41907;47.848;9.000;2023-07-29T05:33:47;5.15;;;3.83;;
56037;SDS011;41907;47.848;9.000;2023-07-29T05:36:12;8.32;;;3.78;;
56037;SDS011;41907;47.848;9.000;2023-07-29T05:38:38;6.70;;;4.05;;
56037;SDS011;41907;47.848;9.000;2023-07-29T05:41:03;5.10;;;3.70;;
56037;SDS011;41907;47.848;9.000;2023-07-29T05:43:28;6.40;;;4.03;;
56037;SDS011;41907;47.848;9.000;2023-07-29T05:45:53;6.50;;;3.63;;
56037;SDS011;41907;47.848;9.000;2023-07-29T05:48:19;4.55;;;3.30;;
56037;SDS011;41907;47.848;9.000;2023-07-29T05:50:45;5.97;;;3.75;;
56037;SDS011;41907;47.848;9.000;2023-07-29T05:53:10;5.57;;;3.67;;
56037;SDS011;41907;47.848;9.000;2023-07-29T05:55:36;4.78;;;3.47;;
56037;SDS011;41907;47.848;9.000;2023-07-29T05:58:01;8.02;;;5.88;;
56037;SDS011;41907;47.848;9.000;2023-07-29T06:00:26;14.35;;;10.10;;
56037;SDS011;41907;47.848;9.000;2023-07-29T06:02:52;6.28;;;4.57;;
56037;SDS011;41907;47.848;9.000;2023-07-29T06:05:17;6.45;;;4.20;;
56037;SDS011;41907;47.848;9.000;2023-07-29T06:07:42;10.23;;;5.38;;
56037;SDS011;41907;47.848;9.000;2023-07-29T06:10:10;6.80;;;5.00;;
56037;SDS011;41907;47.848;9.000;2023-07-29T06:12:38;5.45;;;4.20;;
56037;SDS011;41907;47.848;9.000;2023-07-29T06:15:04;7.70;;;5.25;;
56037;SDS011;41907;47.848;9.000;2023-07-29T06:17:30;6.28;;;4.05;;
56037;SDS011;41907;47.848;9.000;2023-07-29T06:19:55;5.40;;;3.65;;
56037;SDS011;41907;47.848;9.000;2023-07-29T06:22:20;8.55;;;4.47;;
56037;SDS011;41907;47.848;9.000;2023-07-29T06:24:46;8.68;;;5.57;;
56037;SDS011;41907;47.848;9.000;2023-07-29T06:27:11;7.18;;;4.63;;
56037;SDS011;41907;47.848;9.000;2023-07-29T06:29:37;8.05;;;4.63;;
56037;SDS011;41907;47.848;9.000;2023-07-29T06:32:02;5.95;;;4.13;;
56037;SDS011;41907;47.848;9.000;2023-07-29T06:34:27;8.88;;;4.10;;
56037;SDS011;41907;47.848;9.000;2023-07-29T06:36:53;6.65;;;3.58;;
56037;SDS011;41907;47.848;9.000;2023-07-29T06:39:18;4.50;;;3.70;;
56037;SDS011;41907;47.848;9.000;2023-07-29T06:41:45;5.75;;;4.15;;
56037;SDS011;41907;47.848;9.000;2023-07-29T06:44:10;5.57;;;3.70;;
56037;SDS011;41907;47.848;9.000;2023-07-29T06:46:36;5.30;;;3.70;;
56037;SDS011;41907;47.848;9.000;2023-07-29T06:49:01;8.32;;;3.47;;
56037;SDS011;41907;47.848;9.000;2023-07-29T06:51:27;10.60;;;6.70;;
56037;SDS011;41907;47.848;9.000;2023-07-29T06:53:54;10.23;;;6.72;;
56037;SDS011;41907;47.848;9.000;2023-07-29T06:56:19;5.53;;;3.45;;
56037;SDS011;41907;47.848;9.000;2023-07-29T06:58:45;6.30;;;4.25;;
56037;SDS011;41907;47.848;9.000;2023-07-29T07:01:10;6.15;;;3.70;;
56037;SDS011;41907;47.848;9.000;2023-07-29T07:03:35;4.78;;;3.47;;
56037;SDS011;41907;47.848;9.000;2023-07-29T07:06:01;5.20;;;3.75;;
56037;SDS011;41907;47.848;9.000;2023-07-29T07:08:26;6.00;;;4.10;;
56037;SDS011;41907;47.848;9.000;2023-07-29T07:10:51;5.25;;;3.80;;
56037;SDS011;41907;47.848;9.000;2023-07-29T07:13:17;6.63;;;4.25;;
56037;SDS011;41907;47.848;9.000;2023-07-29T07:15:42;6.40;;;4.20;;
56037;SDS011;41907;47.848;9.000;2023-07-29T07:18:08;6.07;;;4.22;;
56037;SDS011;41907;47.848;9.000;2023-07-29T07:20:34;8.32;;;3.92;;
56037;SDS011;41907;47.848;9.000;2023-07-29T07:22:59;7.18;;;3.85;;
56037;SDS011;41907;47.848;9.000;2023-07-29T07:25:25;8.50;;;4.22;;
56037;SDS011;41907;47.848;9.000;2023-07-29T07:27:50;5.07;;;3.88;;
56037;SDS011;41907;47.848;9.000;2023-07-29T07:30:16;5.20;;;3.45;;
56037;SDS011;41907;47.848;9.000;2023-07-29T07:32:41;7.30;;;4.22;;
56037;SDS011;41907;47.848;9.000;2023-07-29T07:35:06;4.82;;;3.40;;
56037;SDS011;41907;47.848;9.000;2023-07-29T07:37:32;5.80;;;4.53;;
56037;SDS011;41907;47.848;9.000;2023-07-29T07:39:57;4.63;;;3.30;;
56037;SDS011;41907;47.848;9.000;2023-07-29T07:42:23;6.53;;;5.25;;
56037;SDS011;41907;47.848;9.000;2023-07-29T07:44:48;6.20;;;3.33;;
56037;SDS011;41907;47.848;9.000;2023-07-29T07:47:14;6.53;;;3.40;;
56037;SDS011;41907;47.848;9.000;2023-07-29T07:49:39;3.28;;;2.97;;
56037;SDS011;41907;47.848;9.000;2023-07-29T07:52:05;5.22;;;3.20;;
56037;SDS011;41907;47.848;9.000;2023-07-29T07:54:30;3.22;;;2.85;;
56037;SDS011;41907;47.848;9.000;2023-07-29T07:56:56;4.25;;;3.38;;
56037;SDS011;41907;47.848;9.000;2023-07-29T07:59:21;4.70;;;3.60;;
56037;SDS011;41907;47.848;9.000;2023-07-29T08:01:46;4.60;;;3.30;;
56037;SDS011;41907;47.848;9.000;2023-07-29T08:04:12;4.93;;;3.17;;
56037;SDS011;41907;47.848;9.000;2023-07-29T08:06:37;4.60;;;2.85;;
56037;SDS011;41907;47.848;9.000;2023-07-29T08:09:03;3.15;;;2.85;;
56037;SDS011;41907;47.848;9.000;2023-07-29T08:11:28;3.38;;;3.03;;
56037;SDS011;41907;47.848;9.000;2023-07-29T08:13:53;5.25;;;3.10;;
56037;SDS011;41907;47.848;9.000;2023-07-29T08:16:19;5.35;;;3.45;;
56037;SDS011;41907;47.848;9.000;2023-07-29T08:18:44;4.55;;;3.58;;
56037;SDS011;41907;47.848;9.000;2023-07-29T08:21:09;4.18;;;3.13;;
56037;SDS011;41907;47.848;9.000;2023-07-29T08:23:35;4.38;;;3.30;;
56037;SDS011;41907;47.848;9.000;2023-07-29T08:26:02;3.88;;;3.03;;
56037;SDS011;41907;47.848;9.000;2023-07-29T08:30:58;3.97;;;2.90;;
56037;SDS011;41907;47.848;9.000;2023-07-29T08:33:24;3.85;;;3.20;;
56037;SDS011;41907;47.848;9.000;2023-07-29T08:35:50;3.70;;;2.80;;
56037;SDS011;41907;47.848;9.000;2023-07-29T08:38:16;4.93;;;4.18;;
56037;SDS011;41907;47.848;9.000;2023-07-29T08:40:42;4.22;;;3.25;;
56037;SDS011;41907;47.848;9.000;2023-07-29T08:43:14;4.30;;;3.00;;
56037;SDS011;41907;47.848;9.000;2023-07-29T08:45:41;4.70;;;3.17;;
56037;SDS011;41907;47.848;9.000;2023-07-29T08:48:10;3.63;;;3.28;;
56037;SDS011;41907;47.848;9.000;2023-07-29T08:50:36;3.80;;;2.90;;
56037;SDS011;41907;47.848;9.000;2023-07-29T08:53:05;6.40;;;3.40;;
56037;SDS011;41907;47.848;9.000;2023-07-29T08:55:31;3.78;;;3.30;;
56037;SDS011;41907;47.848;9.000;2023-07-29T08:57:57;6.65;;;3.10;;
56037;SDS011;41907;47.848;9.000;2023-07-29T09:00:25;5.28;;;2.90;;
56037;SDS011;41907;47.848;9.000;2023-07-29T09:02:51;8.23;;;3.28;;
56037;SDS011;41907;47.848;9.000;2023-07-29T09:05:16;4.47;;;3.25;;
56037;SDS011;41907;47.848;9.000;2023-07-29T09:07:42;4.03;;;3.00;;
56037;SDS011;41907;47.848;9.000;2023-07-29T09:10:09;5.03;;;3.03;;
56037;SDS011;41907;47.848;9.000;2023-07-29T09:12:38;3.15;;;2.83;;
56037;SDS011;41907;47.848;9.000;2023-07-29T09:15:04;4.00;;;2.70;;
56037;SDS011;41907;47.848;9.000;2023-07-29T09:17:31;2.60;;;2.40;;
56037;SDS011;41907;47.848;9.000;2023-07-29T09:19:57;5.15;;;2.83;;
56037;SDS011;41907;47.848;9.000;2023-07-29T09:22:23;7.63;;;4.40;;
56037;SDS011;41907;47.848;9.000;2023-07-29T09:24:50;3.35;;;2.50;;
56037;SDS011;41907;47.848;9.000;2023-07-29T09:27:25;3.55;;;2.90;;
56037;SDS011;41907;47.848;9.000;2023-07-29T09:29:52;3.40;;;2.80;;
56037;SDS011;41907;47.848;9.000;2023-07-29T09:32:21;3.75;;;2.83;;
56037;SDS011;41907;47.848;9.000;2023-07-29T09:34:47;4.30;;;2.75;;
56037;SDS011;41907;47.848;9.000;2023-07-29T09:37:22;4.70;;;2.88;;
56037;SDS011;41907;47.848;9.000;2023-07-29T09:39:48;3.55;;;2.70;;
56037;SDS011;41907;47.848;9.000;2023-07-29T09:42:21;3.05;;;2.75;;
56037;SDS011;41907;47.848;9.000;2023-07-29T09:44:48;3.38;;;2.20;;
56037;SDS011;41907;47.848;9.000;2023-07-29T09:47:32;3.20;;;2.80;;
56037;SDS011;41907;47.848;9.000;2023-07-29T09:49:58;5.13;;;2.70;;
56037;SDS011;41907;47.848;9.000;2023-07-29T09:52:24;3.63;;;2.83;;
56037;SDS011;41907;47.848;9.000;2023-07-29T09:54:50;3.17;;;2.53;;
56037;SDS011;41907;47.848;9.000;2023-07-29T09:57:16;4.90;;;2.20;;
56037;SDS011;41907;47.848;9.000;2023-07-29T09:59:43;5.82;;;2.72;;
56037;SDS011;41907;47.848;9.000;2023-07-29T10:02:12;4.50;;;2.15;;
56037;SDS011;41907;47.848;9.000;2023-07-29T10:04:43;2.50;;;2.30;;
56037;SDS011;41907;47.848;9.000;2023-07-29T10:07:12;2.30;;;2.08;;
56037;SDS011;41907;47.848;9.000;2023-07-29T10:09:40;2.33;;;1.90;;
56037;SDS011;41907;47.848;9.000;2023-07-29T10:12:06;3.13;;;2.53;;
56037;SDS011;41907;47.848;9.000;2023-07-29T10:14:32;4.50;;;2.17;;
56037;SDS011;41907;47.848;9.000;2023-07-29T10:16:58;2.75;;;2.13;;
56037;SDS011;41907;47.848;9.000;2023-07-29T10:19:25;2.92;;;1.83;;
56037;SDS011;41907;47.848;9.000;2023-07-29T10:21:51;3.45;;;1.88;;
56037;SDS011;41907;47.848;9.000;2023-07-29T10:24:21;5.70;;;2.30;;
56037;SDS011;41907;47.848;9.000;2023-07-29T10:26:53;3.50;;;2.80;;
56037;SDS011;41907;47.848;9.000;2023-07-29T10:29:27;2.15;;;1.85;;
56037;SDS011;41907;47.848;9.000;2023-07-29T10:31:55;2.92;;;2.10;;
56037;SDS011;41907;47.848;9.000;2023-07-29T10:34:22;3.08;;;1.85;;
56037;SDS011;41907;47.848;9.000;2023-07-29T10:36:49;2.33;;;2.03;;
56037;SDS011;41907;47.848;9.000;2023-07-29T10:39:15;2.45;;;2.25;;
56037;SDS011;41907;47.848;9.000;2023-07-29T10:47:11;2.78;;;2.15;;
56037;SDS011;41907;47.848;9.000;2023-07-29T10:49:41;2.67;;;2.03;;
56037;SDS011;41907;47.848;9.000;2023-07-29T10:52:13;2.08;;;1.88;;
56037;SDS011;41907;47.848;9.000;2023-07-29T10:57:12;2.80;;;2.15;;
56037;SDS011;41907;47.848;9.000;2023-07-29T10:59:40;4.70;;;2.08;;
56037;SDS011;41907;47.848;9.000;2023-07-29T11:02:12;2.40;;;1.90;;
56037;SDS011;41907;47.848;9.000;2023-07-29T11:04:46;2.13;;;1.70;;
56037;SDS011;41907;47.848;9.000;2023-07-29T11:14:57;2.47;;;2.00;;
56037;SDS011;41907;47.848;9.000;2023-07-29T11:17:22;3.60;;;2.88;;
56037;SDS011;41907;47.848;9.000;2023-07-29T11:19:48;2.15;;;1.85;;
56037;SDS011;41907;47.848;9.000;2023-07-29T11:22:15;3.53;;;2.05;;
56037;SDS011;41907;47.848;9.000;2023-07-29T11:24:41;1.90;;;1.70;;
56037;SDS011;41907;47.848;9.000;2023-07-29T11:27:10;2.80;;;1.70;;
56037;SDS011;41907;47.848;9.000;2023-07-29T11:29:36;1.60;;;1.50;;
56037;SDS011;41907;47.848;9.000;2023-07-29T11:32:02;1.55;;;1.30;;
56037;SDS011;41907;47.848;9.000;2023-07-29T11:34:33;2.53;;;1.60;;
56037;SDS011;41907;47.848;9.000;2023-07-29T11:36:59;2.00;;;1.40;;
56037;SDS011;41907;47.848;9.000;2023-07-29T11:39:25;2.28;;;1.83;;
56037;SDS011;41907;47.848;9.000;2023-07-29T11:41:50;2.85;;;1.60;;
56037;SDS011;41907;47.848;9.000;2023-07-29T11:44:18;2.75;;;1.50;;
56037;SDS011;41907;47.848;9.000;2023-07-29T11:46:44;2.15;;;1.50;;
56037;SDS011;41907;47.848;9.000;2023-07-29T11:49:09;1.80;;;1.70;;
56037;SDS011;41907;47.848;9.000;2023-07-29T11:51:38;2.65;;;1.58;;
56037;SDS011;41907;47.848;9.000;2023-07-29T11:54:03;1.73;;;1.60;;
56037;SDS011;41907;47.848;9.000;2023-07-29T11:56:30;2.47;;;1.95;;
56037;SDS011;41907;47.848;9.000;2023-07-29T11:58:56;1.95;;;1.50;;
56037;SDS011;41907;47.848;9.000;2023-07-29T12:01:21;2.88;;;2.13;;
56037;SDS011;41907;47.848;9.000;2023-07-29T12:03:47;3.00;;;1.90;;
56037;SDS011;41907;47.848;9.000;2023-07-29T12:06:15;2.55;;;1.85;;
56037;SDS011;41907;47.848;9.000;2023-07-29T12:08:41;2.22;;;1.77;;
56037;SDS011;41907;47.848;9.000;2023-07-29T12:11:08;4.10;;;2.78;;
56037;SDS011;41907;47.848;9.000;2023-07-29T12:13:35;4.82;;;2.17;;
56037;SDS011;41907;47.848;9.000;2023-07-29T12:16:01;4.22;;;1.98;;
56037;SDS011;41907;47.848;9.000;2023-07-29T12:18:35;2.38;;;1.83;;
56037;SDS011;41907;47.848;9.000;2023-07-29T12:21:01;2.10;;;1.85;;
56037;SDS011;41907;47.848;9.000;2023-07-29T12:23:28;2.03;;;1.83;;
56037;SDS011;41907;47.848;9.000;2023-07-29T12:25:57;2.28;;;2.00;;
56037;SDS011;41907;47.848;9.000;2023-07-29T12:28:24;3.97;;;2.15;;
56037;SDS011;41907;47.848;9.000;2023-07-29T12:30:53;4.30;;;2.03;;
56037;SDS011;41907;47.848;9.000;2023-07-29T12:33:32;2.45;;;1.98;;
56037;SDS011;41907;47.848;9.000;2023-07-29T12:36:00;2.05;;;1.85;;
56037;SDS011;41907;47.848;9.000;2023-07-29T12:38:25;2.72;;;1.90;;
56037;SDS011;41907;47.848;9.000;2023-07-29T12:40:51;3.78;;;2.13;;
56037;SDS011;41907;47.848;9.000;2023-07-29T12:43:17;2.35;;;1.90;;
56037;SDS011;41907;47.848;9.000;2023-07-29T12:45:42;2.40;;;2.13;;
56037;SDS011;41907;47.848;9.000;2023-07-29T12:48:09;3.17;;;2.30;;
56037;SDS011;41907;47.848;9.000;2023-07-29T12:50:34;3.95;;;2.20;;
56037;SDS011;41907;47.848;9.000;2023-07-29T12:53:00;2.20;;;1.90;;
56037;SDS011;41907;47.848;9.000;2023-07-29T12:55:25;2.55;;;1.98;;
56037;SDS011;41907;47.848;9.000;2023-07-29T12:57:51;2.97;;;1.70;;
56037;SDS011;41907;47.848;9.000;2023-07-29T13:00:16;2.42;;;2.00;;
56037;SDS011;41907;47.848;9.000;2023-07-29T13:02:42;3.13;;;1.90;;
56037;SDS011;41907;47.848;9.000;2023-07-29T13:05:11;3.70;;;1.95;;
56037;SDS011;41907;47.848;9.000;2023-07-29T13:07:39;2.67;;;2.03;;
56037;SDS011;41907;47.848;9.000;2023-07-29T13:10:05;2.10;;;1.75;;
56037;SDS011;41907;47.848;9.000;2023-07-29T13:12:31;2.28;;;1.80;;
56037;SDS011;41907;47.848;9.000;2023-07-29T13:14:57;2.08;;;1.60;;
56037;SDS011;41907;47.848;9.000;2023-07-29T13:17:23;1.73;;;1.52;;
56037;SDS011;41907;47.848;9.000;2023-07-29T13:19:48;2.20;;;1.58;;
56037;SDS011;41907;47.848;9.000;2023-07-29T13:22:14;4.43;;;1.80;;
56037;SDS011;41907;47.848;9.000;2023-07-29T13:24:39;2.10;;;1.90;;
56037;SDS011;41907;47.848;9.000;2023-07-29T13:27:05;2.17;;;1.63;;
56037;SDS011;41907;47.848;9.000;2023-07-29T13:29:30;2.63;;;2.00;;
56037;SDS011;41907;47.848;9.000;2023-07-29T13:31:56;2.50;;;1.80;;
56037;SDS011;41907;47.848;9.000;2023-07-29T13:34:21;3.88;;;2.03;;
56037;SDS011;41907;47.848;9.000;2023-07-29T13:36:46;2.03;;;1.80;;
56037;SDS011;41907;47.848;9.000;2023-07-29T13:39:12;3.20;;;1.90;;
56037;SDS011;41907;47.848;9.000;2023-07-29T13:41:37;2.55;;;1.80;;
56037;SDS011;41907;47.848;9.000;2023-07-29T13:44:03;3.10;;;1.88;;
56037;SDS011;41907;47.848;9.000;2023-07-29T13:46:28;2.28;;;1.55;;
56037;SDS011;41907;47.848;9.000;2023-07-29T13:48:53;2.05;;;1.70;;
56037;SDS011;41907;47.848;9.000;2023-07-29T13:51:19;3.10;;;1.98;;
56037;SDS011;41907;47.848;9.000;2023-07-29T13:53:44;10.65;;;2.10;;
56037;SDS011;41907;47.848;9.000;2023-07-29T13:56:09;4.85;;;1.85;;
56037;SDS011;41907;47.848;9.000;2023-07-29T13:58:35;2.80;;;1.73;;
56037;SDS011;41907;47.848;9.000;2023-07-29T14:01:00;1.80;;;1.58;;
56037;SDS011;41907;47.848;9.000;2023-07-29T14:03:25;2.00;;;1.35;;
56037;SDS011;41907;47.848;9.000;2023-07-29T14:05:51;2.30;;;1.50;;
56037;SDS011;41907;47.848;9.000;2023-07-29T14:08:16;4.15;;;1.17;;
56037;SDS011;41907;47.848;9.000;2023-07-29T14:10:41;2.15;;;1.25;;
56037;SDS011;41907;47.848;9.000;2023-07-29T14:13:07;2.60;;;1.10;;
56037;SDS011;41907;47.848;9.000;2023-07-29T14:15:32;3.97;;;1.30;;
56037;SDS011;41907;47.848;9.000;2023-07-29T14:17:58;1.48;;;1.05;;
56037;SDS011;41907;47.848;9.000;2023-07-29T14:20:23;2.20;;;1.10;;
56037;SDS011;41907;47.848;9.000;2023-07-29T14:22:48;2.22;;;1.40;;
56037;SDS011;41907;47.848;9.000;2023-07-29T14:25:14;2.22;;;1.25;;
56037;SDS011;41907;47.848;9.000;2023-07-29T14:27:40;2.15;;;1.50;;
56037;SDS011;41907;47.848;9.000;2023-07-29T14:30:05;2.05;;;1.30;;
56037;SDS011;41907;47.848;9.000;2023-07-29T14:32:31;1.63;;;1.30;;
56037;SDS011;41907;47.848;9.000;2023-07-29T14:34:57;1.80;;;1.45;;
56037;SDS011;41907;47.848;9.000;2023-07-29T14:37:22;1.83;;;1.50;;
56037;SDS011;41907;47.848;9.000;2023-07-29T14:39:48;2.08;;;1.83;;
56037;SDS011;41907;47.848;9.000;2023-07-29T14:42:13;1.67;;;1.52;;
56037;SDS011;41907;47.848;9.000;2023-07-29T14:44:40;1.42;;;1.30;;
56037;SDS011;41907;47.848;9.000;2023-07-29T14:47:05;1.98;;;1.77;;
56037;SDS011;41907;47.848;9.000;2023-07-29T14:49:32;3.53;;;1.95;;
56037;SDS011;41907;47.848;9.000;2023-07-29T14:51:57;2.53;;;1.73;;
56037;SDS011;41907;47.848;9.000;2023-07-29T14:54:23;4.30;;;1.63;;
56037;SDS011;41907;47.848;9.000;2023-07-29T14:56:48;2.30;;;2.00;;
56037;SDS011;41907;47.848;9.000;2023-07-29T14:59:13;5.35;;;2.00;;
56037;SDS011;41907;47.848;9.000;2023-07-29T15:01:39;2.58;;;2.35;;
56037;SDS011;41907;47.848;9.000;2023-07-29T15:04:04;2.85;;;1.85;;